Latest Weather Observations for Charlton

IDV60801

Issued at 12:12 pm EDT Friday 18 October 2019 (issued every 10 minutes, with the page automatically refreshed every 10 minutes)

About weather observations | Map of weather stations | Latest weather observations for VIC | Other Formats
Station Details ID: 080128 Name: CHARLTON Lat: -36.28 Lon: 143.33 Height: 131.7 m
Data from the previous 72 hours. | See also: Recent months at Charlton
Date/Time
EDT
Temp
°C
App
Temp
°C
Dew
Point
°C
Rel
Hum
%
Delta-T
°C
Wind Press
QNH
hPa
Press
MSL
hPa
Rain since
9am
mm
Dir  Spd
km/h
Gust
km/h
Spd
kts
Gust
kts
18/12:00pm 18.1 13.1 3.6 38 6.8 NNW 19 32 10 17 1016.1 1016.0 0.0
18/11:30am 16.5 11.0 4.2 44 5.8 NNW 22 35 12 19 1016.7 1016.6 0.0
18/11:00am 15.8 10.8 4.5 47 5.3 NNW 20 35 11 19 1017.2 1017.1 0.0
18/10:30am 15.1 9.8 4.8 50 4.9 NNW 22 33 12 18 1017.2 1017.1 0.0
18/10:00am 14.2 9.5 5.0 54 4.3 NNW 19 26 10 14 1017.4 1017.3 0.0
18/09:30am 12.4 8.0 4.9 60 3.5 NNW 17 24 9 13 1017.4 1017.3 0.0
18/09:00am 11.0 7.4 4.9 66 2.8 NNW 13 20 7 11 1017.4 1017.3 0.0
18/08:30am 10.0 6.8 5.2 72 2.2 N 11 17 6 9 1017.2 1017.1 0.0
18/08:00am 6.9 6.0 6.0 94 0.4 CALM 0 0 0 0 1017.2 1017.1 0.0
18/07:30am 3.3 1.9 3.3 100 0.0 CALM 0 0 0 0 1017.3 1017.2 0.0
18/07:00am 1.6 -0.2 1.5 99 0.0 CALM 0 0 0 0 1017.3 1017.2 0.0
18/06:30am 1.6 -0.2 1.5 99 0.0 CALM 0 0 0 0 1016.9 1016.8 0.0
18/06:00am 1.8 0.1 1.7 99 0.0 CALM 0 0 0 0 1016.9 1016.8 0.0
18/05:30am 2.1 0.4 2.0 99 0.0 CALM 0 0 0 0 1017.1 1017.0 0.0
18/05:00am 2.4 -0.4 2.3 99 0.0 NNW 6 9 3 5 1017.1 1017.0 0.0
18/04:30am 2.1 0.4 2.0 99 0.0 CALM 0 0 0 0 1017.2 1017.1 0.0
18/04:00am 2.3 0.7 2.2 99 0.0 CALM 0 0 0 0 1017.2 1017.1 0.0
18/03:30am 2.4 0.8 2.3 99 0.0 CALM 0 0 0 0 1017.5 1017.4 0.0
18/03:00am 2.9 1.3 2.5 97 0.2 CALM 0 0 0 0 1017.4 1017.3 0.0
18/02:30am 3.6 2.1 3.0 96 0.2 CALM 0 0 0 0 1017.4 1017.3 0.0
18/02:00am 4.1 2.6 3.2 94 0.4 CALM 0 0 0 0 1017.7 1017.6 0.0
18/01:30am 4.6 2.4 3.1 90 0.6 NNW 4 7 2 4 1018.1 1018.0 0.0
18/01:00am 4.6 1.8 3.4 92 0.5 NW 7 11 4 6 1018.4 1018.2 0.0
18/12:30am 4.8 2.6 3.1 89 0.7 WNW 4 7 2 4 1018.2 1018.1 0.0
18/12:00am 6.2 4.1 3.9 85 1.0 W 4 9 2 5 1018.0 1017.9 0.0
 
Date/Time
EDT
Temp
°C
App
Temp
°C
Dew
Point
°C
Rel
Hum
%
Delta-T
°C
Wind Press
QNH
hPa
Press
MSL
hPa
Rain since
9am
mm
Dir  Spd
km/h
Gust
km/h
Spd
kts
Gust
kts
17/11:30pm 6.7 4.2 3.7 81 1.3 WSW 6 9 3 5 1018.0 1017.9 0.0
17/11:00pm 7.5 4.8 3.7 77 1.6 WSW 7 11 4 6 1018.0 1017.9 0.0
17/10:30pm 7.8 5.7 3.8 76 1.7 SW 4 7 2 4 1018.2 1018.1 0.0
17/10:00pm 8.5 6.0 3.9 73 2.0 SW 6 9 3 5 1018.0 1017.9 0.0
17/09:30pm 9.5 6.5 4.1 69 2.4 WSW 9 15 5 8 1017.8 1017.7 0.0
17/09:00pm 10.2 7.3 4.4 67 2.6 WSW 9 17 5 9 1017.5 1017.4 0.0
17/08:30pm 10.8 7.7 3.8 62 3.1 WSW 9 19 5 10 1017.0 1016.9 0.0
17/08:00pm 12.1 8.7 3.9 57 3.7 SW 11 20 6 11 1016.6 1016.5 0.0
17/07:30pm 13.4 10.0 3.8 52 4.4 SW 11 20 6 11 1016.1 1016.0 0.0
17/07:00pm 14.5 9.9 3.6 48 5.0 WSW 17 30 9 16 1015.5 1015.4 0.0
17/06:30pm 15.6 11.5 4.6 48 5.2 WSW 15 30 8 16 1015.1 1015.0 0.0
17/06:00pm 16.3 10.9 4.4 45 5.6 WSW 22 35 12 19 1014.6 1014.5 0.0
17/05:30pm 16.3 11.3 4.4 45 5.6 SW 20 39 11 21 1014.3 1014.1 0.0
17/05:00pm 17.1 11.8 4.8 44 5.9 WSW 22 39 12 21 1013.9 1013.7 0.0
17/04:30pm 17.3 11.5 4.3 42 6.2 WSW 24 43 13 23 1013.7 1013.5 0.0
17/04:00pm 16.9 11.0 3.9 42 6.1 WSW 24 44 13 24 1013.6 1013.4 0.0
17/03:30pm 16.7 10.1 4.4 44 5.8 WSW 28 50 15 27 1013.4 1013.2 0.0
17/03:00pm 16.0 9.3 3.8 44 5.7 WSW 28 46 15 25 1013.7 1013.5 0.0
17/02:30pm 15.7 8.9 3.2 43 5.7 WSW 28 48 15 26 1013.8 1013.6 0.0
17/02:27pm 15.9 9.2 3.4 43 5.8 WSW 28 48 15 26 1013.7 1013.5 0.0
17/02:00pm 16.6 10.4 4.3 44 5.8 W 26 43 14 23 1013.7 1013.5 0.0
17/01:39pm 15.8 9.2 4.2 46 5.4 WSW 28 46 15 25 1013.8 1013.6 0.0
17/01:30pm 13.9 8.7 5.5 57 4.0 WSW 22 43 12 23 1013.9 1013.7 0.0
17/01:00pm 14.6 9.0 3.4 47 5.1 W 22 52 12 28 1013.9 1013.7 0.0
17/12:30pm 14.6 7.8 3.1 46 5.2 W 28 46 15 25 1013.8 1013.6 0.0
17/12:00pm 14.8 8.0 3.0 45 5.3 W 28 50 15 27 1013.7 1013.5 0.0
17/11:36am 14.0 7.3 3.5 49 4.8 W 28 46 15 25 1013.7 1013.5 0.0
17/11:30am 13.4 7.1 3.8 52 4.4 W 26 46 14 25 1013.7 1013.5 0.0
17/11:03am 13.4 6.9 4.8 56 4.0 W 28 48 15 26 1013.6 1013.4 0.0
17/11:00am 14.0 8.0 5.4 56 4.1 WSW 26 44 14 24 1013.6 1013.4 0.0
17/10:30am 13.2 7.9 5.1 58 3.8 WSW 22 39 12 21 1013.5 1013.3 0.0
17/10:00am 11.4 7.2 5.7 68 2.7 WSW 17 30 9 16 1013.4 1013.2 0.0
17/09:30am 10.6 6.1 6.2 74 2.1 WSW 19 30 10 16 1013.2 1013.0 0.0
17/09:00am 9.7 5.1 6.6 81 1.5 WSW 20 33 11 18 1013.0 1012.8 0.0
17/08:30am 8.7 4.3 7.2 90 0.7 W 20 39 11 21 1012.4 1012.2 0.0
17/08:00am 7.5 3.2 6.9 96 0.3 WNW 19 28 10 15 1011.9 1011.7 0.0
17/07:30am 6.9 2.9 6.8 99 0.0 WNW 17 28 9 15 1011.7 1011.5 0.0
17/07:00am 6.5 2.8 6.4 99 0.0 WNW 15 24 8 13 1011.3 1011.1 0.0
17/06:30am 6.8 3.2 6.7 99 0.0 WNW 15 24 8 13 1010.9 1010.7 0.0
17/06:00am 7.1 3.6 7.0 99 0.0 WNW 15 22 8 12 1010.5 1010.3 0.0
17/05:30am 7.6 4.2 7.5 99 0.0 WNW 15 24 8 13 1010.0 1009.9 0.0
17/05:00am 8.2 4.9 8.1 99 0.0 WNW 15 26 8 14 1009.9 1009.8 0.0
17/04:30am 8.2 4.9 8.1 99 0.0 WNW 15 20 8 11 1009.9 1009.8 0.0
17/04:00am 8.7 5.9 8.6 99 0.0 WNW 13 19 7 10 1010.1 1010.0 0.0
17/03:30am 9.3 6.3 9.2 99 0.0 WNW 15 22 8 12 1010.2 1010.1 0.0
17/03:00am 9.6 6.9 9.1 97 0.2 WNW 13 22 7 12 1010.5 1010.3 0.0
17/02:30am 10.3 6.7 8.4 88 0.9 W 17 28 9 15 1010.7 1010.5 0.0
17/02:00am 10.3 7.0 7.9 85 1.2 W 15 26 8 14 1010.8 1010.6 0.0
17/01:30am 10.1 6.7 7.5 84 1.3 W 15 24 8 13 1010.8 1010.6 0.0
17/01:00am 10.2 6.2 6.5 78 1.7 W 17 28 9 15 1011.0 1010.8 0.0
17/12:30am 8.7 5.7 6.0 83 1.2 WNW 11 17 6 9 1010.7 1010.5 0.0
17/12:00am 9.3 5.9 5.9 79 1.6 WNW 13 19 7 10 1010.7 1010.5 0.0
 
Date/Time
EDT
Temp
°C
App
Temp
°C
Dew
Point
°C
Rel
Hum
%
Delta-T
°C
Wind Press
QNH
hPa
Press
MSL
hPa
Rain since
9am
mm
Dir  Spd
km/h
Gust
km/h
Spd
kts
Gust
kts
16/11:30pm 10.2 6.9 6.2 76 1.9 W 13 20 7 11 1011.0 1010.8 0.0
16/11:00pm 10.6 7.3 6.2 74 2.1 W 13 19 7 10 1010.9 1010.7 0.0
16/10:30pm 11.1 8.2 6.3 72 2.3 W 11 17 6 9 1010.8 1010.6 0.0
16/10:00pm 12.1 8.8 6.4 68 2.7 W 13 20 7 11 1010.8 1010.6 0.0
16/09:30pm 12.9 9.8 7.1 68 2.8 W 13 19 7 10 1010.7 1010.5 0.0
16/09:00pm 13.8 10.9 8.0 68 2.9 W 13 19 7 10 1010.6 1010.4 0.0
16/08:30pm 14.9 12.1 8.4 65 3.3 W 13 20 7 11 1010.1 1010.0 0.0
16/08:00pm 16.2 13.6 9.4 64 3.6 W 13 26 7 14 1009.6 1009.5 0.0
16/07:30pm 17.1 15.1 10.0 63 3.8 W 11 20 6 11 1009.4 1009.3 0.0
16/07:00pm 17.3 14.4 9.5 60 4.1 W 15 22 8 12 1009.1 1009.0 0.0
16/06:30pm 18.1 16.3 10.7 62 4.0 W 11 20 6 11 1009.0 1008.9 0.0
16/06:00pm 18.6 16.4 10.9 61 4.2 W 13 24 7 13 1008.8 1008.7 0.0
16/05:30pm 19.2 17.0 10.7 58 4.6 W 13 24 7 13 1008.6 1008.5 0.0
16/05:00pm 19.1 16.4 10.4 57 4.7 W 15 22 8 12 1008.5 1008.4 0.0
16/04:30pm 19.8 18.0 10.8 56 4.9 WSW 11 19 6 10 1008.8 1008.7 0.0
16/04:00pm 18.9 17.6 12.6 67 3.6 WSW 11 19 6 10 1009.2 1009.1 0.0
16/03:30pm 19.0 17.5 13.0 68 3.4 W 13 19 7 10 1009.5 1009.4 0.0
16/03:00pm 17.9 16.2 12.4 70 3.1 W 13 20 7 11 1010.2 1010.1 0.0
16/02:30pm 17.2 15.8 13.3 78 2.2 WNW 13 19 7 10 1010.7 1010.5 0.0
16/02:00pm 16.9 15.6 13.6 81 1.9 WNW 13 22 7 12 1010.9 1010.7 0.0
16/01:30pm 15.8 15.5 14.3 91 0.9 WNW 9 17 5 9 1011.1 1010.9 0.0
16/01:00pm 15.1 14.1 13.5 90 0.9 WNW 11 19 6 10 1011.2 1011.0 0.0
16/12:30pm 14.3 13.9 14.1 99 0.1 WNW 9 15 5 8 1011.5 1011.3 0.0
16/12:00pm 13.2 12.1 13.0 99 0.1 NW 11 17 6 9 1011.9 1011.7 0.0
16/11:30am 13.1 12.7 13.1 100 0.0 NW 7 11 4 6 1011.9 1011.7 0.0
16/11:00am 12.8 12.3 12.8 100 0.0 NW 7 11 4 6 1012.2 1012.0 0.0
16/10:30am 12.7 11.8 12.7 100 0.0 WNW 9 13 5 7 1012.3 1012.1 0.0
16/10:00am 12.7 11.8 12.5 99 0.1 NW 9 13 5 7 1012.5 1012.3 0.0
16/09:30am 13.0 12.7 12.8 99 0.1 W 6 9 3 5 1011.6 1011.4 0.0
16/09:00am 13.2 14.1 13.0 99 0.1 CALM 0 0 0 0 1011.4 1011.2 0.0
16/08:30am 12.9 13.8 12.9 100 0.0 CALM 0 0 0 0 1012.0 1011.8 0.0
16/08:00am 12.6 12.3 12.6 100 0.0 NNW 6 9 3 5 1012.3 1012.1 0.0
16/07:30am 12.6 13.4 12.6 100 0.0 CALM 0 6 0 3 1011.9 1011.7 0.0
16/07:00am 12.7 13.5 12.7 100 0.0 CALM 0 0 0 0 1011.6 1011.4 0.0
16/06:30am 12.5 13.3 12.5 100 0.0 CALM 0 0 0 0 1011.2 1011.0 0.0
16/06:00am 12.5 13.3 12.5 100 0.0 CALM 0 0 0 0 1011.6 1011.4 0.0
16/05:30am 12.5 12.8 12.3 99 0.1 NNW 2 6 1 3 1011.3 1011.1 0.0
16/05:00am 12.6 12.3 12.6 100 0.0 NE 6 9 3 5 1010.3 1010.2 0.0
16/04:30am 12.7 13.5 12.4 98 0.2 CALM 0 6 0 3 1011.7 1011.5 0.0
16/04:00am 12.9 13.6 12.1 95 0.4 CALM 0 0 0 0 1011.3 1011.1 0.0
16/03:30am 13.3 12.6 11.4 88 1.0 ESE 6 7 3 4 1011.0 1010.8 0.0
16/03:00am 13.3 12.1 9.7 79 1.9 S 6 9 3 5 1011.4 1011.2 0.0
16/02:30am 13.9 13.9 9.9 77 2.1 CALM 0 6 0 3 1012.1 1011.9 0.0
16/02:00am 14.1 13.6 9.5 74 2.4 NW 2 6 1 3 1013.0 1012.8 0.0
16/01:30am 14.3 13.5 9.5 73 2.5 NNW 4 6 2 3 1013.3 1013.1 0.0
16/01:00am 14.7 14.6 9.3 70 2.8 CALM 0 6 0 3 1013.1 1012.9 0.0
16/12:30am 14.8 13.8 8.7 67 3.1 SSW 4 7 2 4 1013.2 1013.0 0.0
16/12:00am 14.8 14.2 9.0 68 3.0 SSW 2 7 1 4 1013.0 1012.8 0.0
 
Date/Time
EDT
Temp
°C
App
Temp
°C
Dew
Point
°C
Rel
Hum
%
Delta-T
°C
Wind Press
QNH
hPa
Press
MSL
hPa
Rain since
9am
mm
Dir  Spd
km/h
Gust
km/h
Spd
kts
Gust
kts
15/11:30pm 14.6 13.2 9.0 69 2.9 SSE 6 7 3 4 1012.7 1012.5 0.0
15/11:00pm 15.1 14.1 8.8 66 3.2 S 4 7 2 4 1013.1 1012.9 0.0
15/10:30pm 15.6 15.0 9.1 65 3.4 S 2 7 1 4 1013.3 1013.1 0.0
15/10:00pm 15.9 14.6 9.3 65 3.4 SSW 6 7 3 4 1013.6 1013.4 0.0
15/09:30pm 16.0 15.0 9.0 63 3.6 WSW 4 7 2 4 1013.7 1013.5 0.0
15/09:00pm 16.3 14.9 8.8 61 3.9 SSW 6 9 3 5 1013.4 1013.2 0.0
15/08:30pm 16.8 15.4 9.0 60 4.1 SSW 6 9 3 5 1013.1 1012.9 0.0
15/08:00pm 18.1 16.1 8.7 54 4.9 SW 9 15 5 8 1012.7 1012.5 0.0
15/07:30pm 19.3 17.3 8.6 50 5.6 SSW 9 15 5 8 1012.4 1012.2 0.0
15/07:00pm 20.2 18.2 7.2 43 6.7 SW 7 13 4 7 1012.4 1012.2 0.0
15/06:30pm 20.7 18.3 7.0 41 7.0 SSW 9 13 5 7 1012.1 1011.9 0.0
15/06:00pm 21.5 18.2 6.6 38 7.6 SW 13 24 7 13 1011.7 1011.5 0.0
15/05:30pm 22.2 18.8 6.0 35 8.2 SSW 13 22 7 12 1011.0 1010.8 0.0
15/05:00pm 23.1 19.6 5.5 32 8.9 SW 13 24 7 13 1011.5 1011.3 0.0
15/04:30pm 23.8 20.4 4.2 28 9.7 WSW 11 19 6 10 1011.5 1011.3 0.0
15/04:00pm 24.7 20.8 3.4 25 10.5 WSW 13 28 7 15 1011.5 1011.3 0.0
15/03:30pm 24.4 20.5 1.3 22 10.9 WSW 11 19 6 10 1011.6 1011.4 0.0
15/03:00pm 24.5 20.6 1.4 22 10.9 SW 11 19 6 10 1011.6 1011.4 0.0
15/02:30pm 23.4 20.1 2.3 25 10.1 SSW 9 13 5 7 1012.3 1012.1 0.0
15/02:00pm 22.6 19.5 3.7 29 9.2 SSW 9 20 5 11 1012.5 1012.3 0.0
15/01:30pm 22.1 18.6 3.7 30 8.9 WSW 11 17 6 9 1012.7 1012.5 0.0
15/01:00pm 21.6 19.0 5.9 36 7.9 SW 9 15 5 8 1012.9 1012.7 0.0
15/12:30pm 20.2 17.2 4.3 35 7.7 SSW 9 15 5 8 1013.1 1012.9 0.0

Other formats

Comma delimited format used in spreadsheet applications
http://www.bom.gov.au/fwo/IDV60801/IDV60801.94839.axf

JavaScript Object Notation format (JSON) in row-major order
http://www.bom.gov.au/fwo/IDV60801/IDV60801.94839.json

Data quality

Most of these data are generated automatically and are frequently updated. Quality checks on data are not normally performed. It is possible for incorrect values to appear. Refer to information at About Latest Weather Observations and please check the disclaimer before using these data.